Dati Storici

Data ora Umidita' aria (%) Temperatura aria (°C) Rad globale (W/m²) Gonioanemometro (°) Tacoanemometro (m/s) Pioggia (mm)
01-07-2020 20:50 87.8 % 25.697 53.991 -0.022 0 0
01-07-2020 20:40 88.6 % 25.944 124.006 -0.025 0 0
01-07-2020 20:30 86.3 % 26.029 108.3 0.373 0 0
01-07-2020 20:20 83.4 % 26.064 131.065 -0.023 0 0
01-07-2020 20:10 81.6 % 26.215 81.287 -0.029 0 0
01-07-2020 20:00 80 % 26.452 84.514 -0.029 0 0
01-07-2020 19:50 80.4 % 26.695 154.592 -0.041 0 0
01-07-2020 19:40 79.9 % 26.648 95.497 0.426 0 0
01-07-2020 19:30 79.5 % 26.853 103.378 -0.036 0 0
01-07-2020 19:20 78.1 % 27.032 80.025 -0.037 0 0
01-07-2020 19:10 77.8 % 27.152 119.203 0.465 0 0
01-07-2020 19:00 75.3 % 27.265 122.295 0.513 0 0
01-07-2020 18:50 74.5 % 27.295 61.609 0.735 0 0
01-07-2020 18:40 73 % 27.432 44.465 1.509 0 0
01-07-2020 18:30 68.3 % 28.247 83.108 0.577 0 0
01-07-2020 18:20 68.4 % 28.094 182.182 -0.034 0 0
01-07-2020 18:10 65 % 28.02 46.148 1.107 0 0
01-07-2020 18:00 63.5 % 28.582 36.97 1.168 0 0
01-07-2020 17:50 67.6 % 29.225 48.286 0.957 0 0
01-07-2020 17:40 65.8 % 29.22 41.431 -0.038 0 0

I dati sono presentati in modo automatico a scopo informativo. In seguito a verifica i dati possono subire modifiche o essere invalidati e non riportati negli archivi definitivi.